Terminal Aerodrome Forecast
Issued by NWS Cleveland, OH

Home | Current Version | Previous Version | Text Only | Print | Product List | Glossary Off
Versions: 1 2 3 4 5 6 7 8 9 10 11 12 13 14 15 16 17 18 19 20 21 22 23

000
FTUS41 KCLE 221500 AAA
TAFMFD
TAF AMD
KMFD 221558Z 2216/2312 27006KT 3SM BR OVC010
      TEMPO 2216/2218 2SM -SN BR OVC005
     FM222000 31005KT P6SM OVC025
     FM230200 VRB03KT P6SM SCT015 BKN045
     FM230400 24004KT P6SM BKN015
     FM230800 VRB03KT 5SM BR OVC015=

USA.gov is the U.S. government's official web portal to all federal, state and local government web resources and services.